Time;durP1;ratioP1;P1;durP2;ratioP2;P2;SDS_P1;SDS_P2;PMS_P1;PMS_P2;Temp;Humidity;BMP_temperature;BMP_pressure;BME280_temperature;BME280_humidity;BME280_pressure;Samples;Min_cycle;Max_cycle;Signal;HPM_P1;HPM_P2
2023/07/23 00:01:47;;;;;;;7.63;6.00;;;13.70;99.90;;;;;;4992953;28;20121;-80
2023/07/23 00:04:13;;;;;;;9.15;5.88;;;13.70;99.90;;;;;;4977760;28;20027;-80
2023/07/23 00:06:39;;;;;;;7.95;5.32;;;13.70;99.90;;;;;;4977385;28;20026;-79
2023/07/23 00:09:05;;;;;;;8.20;5.57;;;13.70;99.90;;;;;;4984653;28;20034;-79
2023/07/23 00:11:30;;;;;;;8.35;5.65;;;13.70;99.90;;;;;;5003393;28;20077;-79
2023/07/23 00:13:56;;;;;;;8.05;5.85;;;13.70;99.90;;;;;;5005458;28;20022;-79
2023/07/23 00:16:23;;;;;;;8.68;5.15;;;13.70;99.90;;;;;;4987616;28;20030;-79
2023/07/23 00:18:49;;;;;;;8.77;5.15;;;13.70;99.90;;;;;;5005211;28;20105;-79
2023/07/23 00:21:15;;;;;;;5.68;4.82;;;13.70;99.90;;;;;;4987561;28;20029;-80
2023/07/23 00:23:40;;;;;;;9.60;5.97;;;13.70;99.90;;;;;;4989698;28;20015;-80
2023/07/23 00:26:06;;;;;;;7.18;5.70;;;13.60;99.90;;;;;;4990013;28;20103;-80
2023/07/23 00:28:31;;;;;;;9.05;6.47;;;13.70;99.90;;;;;;4983427;28;20398;-80
2023/07/23 00:30:57;;;;;;;9.10;6.28;;;13.70;99.90;;;;;;5005506;28;20037;-80
2023/07/23 00:33:23;;;;;;;8.15;6.15;;;13.60;99.90;;;;;;4987925;28;20026;-80
2023/07/23 00:35:49;;;;;;;8.27;5.80;;;13.70;99.90;;;;;;5004110;28;20018;-79
2023/07/23 00:38:14;;;;;;;13.27;6.53;;;13.60;99.90;;;;;;4985523;28;20096;-80
2023/07/23 00:40:40;;;;;;;7.45;5.80;;;13.70;99.90;;;;;;4981658;28;20019;-79
2023/07/23 00:43:06;;;;;;;8.95;6.32;;;13.70;99.90;;;;;;4988698;28;20026;-80
2023/07/23 00:45:32;;;;;;;8.57;6.47;;;13.70;99.90;;;;;;5003125;28;20018;-80
2023/07/23 00:47:59;;;;;;;8.50;6.25;;;13.70;99.90;;;;;;5001963;28;20416;-80
2023/07/23 00:50:25;;;;;;;8.73;6.70;;;13.70;99.90;;;;;;5000121;28;20026;-80
2023/07/23 00:52:51;;;;;;;10.52;6.78;;;13.70;99.90;;;;;;4989119;28;20022;-79
2023/07/23 00:55:16;;;;;;;8.38;6.70;;;13.70;99.90;;;;;;4998348;28;20436;-80
2023/07/23 00:57:43;;;;;;;8.32;7.15;;;13.70;99.90;;;;;;5006152;28;20106;-81
2023/07/23 01:00:10;;;;;;;7.93;6.80;;;13.70;99.90;;;;;;4996180;28;20221;-80
2023/07/23 01:02:36;;;;;;;8.85;6.88;;;13.70;99.90;;;;;;4997346;28;20022;-80
2023/07/23 01:05:03;;;;;;;8.90;7.53;;;13.70;99.90;;;;;;4982582;28;20033;-80
2023/07/23 01:07:31;;;;;;;9.25;7.75;;;13.70;99.90;;;;;;5004377;28;20228;-80
2023/07/23 01:09:57;;;;;;;10.02;6.88;;;13.70;99.90;;;;;;4979493;28;20444;-81
2023/07/23 01:12:23;;;;;;;9.70;7.55;;;13.70;99.90;;;;;;5000375;28;20022;-80
2023/07/23 01:14:49;;;;;;;10.50;8.10;;;13.70;99.90;;;;;;4990714;28;20025;-82
2023/07/23 01:17:17;;;;;;;7.88;7.00;;;13.70;99.90;;;;;;4985879;28;20485;-82
2023/07/23 01:19:43;;;;;;;11.38;8.40;;;13.70;99.90;;;;;;4986342;28;20608;-81
2023/07/23 01:22:08;;;;;;;9.82;8.20;;;13.70;99.90;;;;;;4985344;28;20058;-82
2023/07/23 01:24:35;;;;;;;8.63;7.63;;;13.70;99.90;;;;;;4984718;28;20025;-82
2023/07/23 01:27:02;;;;;;;10.10;8.10;;;13.70;99.90;;;;;;5004085;28;20026;-82
2023/07/23 01:29:27;;;;;;;9.40;7.85;;;13.70;99.90;;;;;;5004410;28;20097;-83
2023/07/23 01:31:53;;;;;;;8.88;7.95;;;13.70;99.90;;;;;;4987023;28;20046;-82
2023/07/23 01:34:19;;;;;;;10.00;8.85;;;13.70;99.90;;;;;;5002462;28;20033;-82
2023/07/23 01:36:46;;;;;;;9.43;8.07;;;13.80;99.90;;;;;;5003747;28;20771;-83
2023/07/23 01:39:12;;;;;;;11.57;9.82;;;13.80;99.90;;;;;;4987257;28;20033;-84
2023/07/23 01:41:38;;;;;;;9.68;8.48;;;13.80;99.90;;;;;;4986567;28;20389;-82
2023/07/23 01:44:04;;;;;;;10.00;8.18;;;13.80;99.90;;;;;;4986394;28;20025;-83
2023/07/23 01:46:30;;;;;;;10.40;8.93;;;13.80;99.90;;;;;;4984016;28;20038;-83
2023/07/23 01:48:56;;;;;;;10.95;9.02;;;13.80;99.90;;;;;;4986675;28;20068;-81
2023/07/23 01:51:21;;;;;;;12.65;10.93;;;13.80;99.90;;;;;;4985790;28;20032;-83
2023/07/23 01:53:47;;;;;;;13.88;10.02;;;13.80;99.90;;;;;;4982342;28;20029;-82
2023/07/23 01:56:13;;;;;;;12.60;9.90;;;13.80;99.90;;;;;;5004160;28;20097;-82
2023/07/23 01:58:38;;;;;;;10.50;9.05;;;13.80;99.90;;;;;;4986163;28;20027;-83
2023/07/23 02:01:04;;;;;;;13.02;10.27;;;13.80;99.90;;;;;;4986294;28;20033;-83
2023/07/23 02:03:30;;;;;;;12.75;10.15;;;13.90;99.90;;;;;;4977783;28;20023;-81
2023/07/23 02:06:00;;;;;;;12.48;10.00;;;13.90;99.90;;;;;;5006310;28;20018;-81
2023/07/23 02:08:27;;;;;;;13.25;10.43;;;13.80;99.90;;;;;;4989222;28;20025;-83
2023/07/23 02:10:59;;;;;;;10.82;9.73;;;13.80;99.90;;;;;;4990668;28;20049;-83
2023/07/23 02:13:24;;;;;;;13.27;10.88;;;13.90;99.90;;;;;;5004916;28;20029;-82
2023/07/23 02:15:50;;;;;;;10.35;9.13;;;13.90;99.90;;;;;;4987581;28;20026;-82
2023/07/23 02:18:16;;;;;;;11.23;10.10;;;13.90;99.90;;;;;;4990740;28;20488;-83
2023/07/23 02:20:42;;;;;;;14.05;10.63;;;13.90;99.90;;;;;;4988885;28;20025;-83
2023/07/23 02:23:08;;;;;;;11.55;9.95;;;13.90;99.90;;;;;;4989050;28;20021;-83
2023/07/23 02:25:39;;;;;;;12.00;10.48;;;13.90;99.90;;;;;;4988253;28;20133;-83
2023/07/23 02:28:05;;;;;;;13.07;10.88;;;13.90;99.90;;;;;;4987882;28;20033;-82
2023/07/23 02:30:30;;;;;;;12.30;10.68;;;13.90;99.90;;;;;;5003812;28;20049;-83
2023/07/23 02:32:56;;;;;;;12.95;11.38;;;13.90;99.90;;;;;;5006970;28;20025;-82
2023/07/23 02:35:21;;;;;;;13.75;11.00;;;14.00;99.90;;;;;;4989650;28;20034;-83
2023/07/23 02:37:47;;;;;;;14.30;9.70;;;14.00;99.90;;;;;;4988806;28;20046;-83
2023/07/23 02:40:13;;;;;;;11.80;9.88;;;14.00;99.90;;;;;;4990442;28;20112;-83
2023/07/23 02:42:39;;;;;;;14.13;10.73;;;14.00;99.90;;;;;;4999941;28;20060;-82
2023/07/23 02:45:06;;;;;;;10.60;9.10;;;14.00;99.90;;;;;;5007562;28;20029;-83
2023/07/23 02:47:31;;;;;;;11.73;9.85;;;14.00;99.90;;;;;;4988837;28;20114;-82
2023/07/23 02:49:57;;;;;;;13.13;10.50;;;14.00;99.90;;;;;;5006535;28;20064;-83
2023/07/23 02:52:23;;;;;;;10.98;9.77;;;14.00;99.90;;;;;;5006178;28;20420;-82
2023/07/23 02:54:49;;;;;;;11.50;9.93;;;14.00;99.90;;;;;;4987677;28;20029;-84
2023/07/23 02:57:14;;;;;;;12.27;10.98;;;14.00;99.90;;;;;;4990119;28;20026;-84
2023/07/23 02:59:40;;;;;;;12.68;10.57;;;14.00;99.90;;;;;;4989220;28;20061;-82
2023/07/23 03:02:06;;;;;;;11.20;8.70;;;14.00;99.90;;;;;;5006589;28;20040;-83
2023/07/23 03:04:31;;;;;;;14.88;11.02;;;14.00;99.90;;;;;;5005872;28;20022;-82
2023/07/23 03:06:57;;;;;;;14.13;10.82;;;14.00;99.90;;;;;;5002354;28;20601;-83
2023/07/23 03:09:22;;;;;;;12.55;10.88;;;14.00;99.90;;;;;;4989675;28;20036;-83
2023/07/23 03:11:48;;;;;;;13.68;11.73;;;14.00;99.90;;;;;;4983501;28;20054;-83
2023/07/23 03:14:14;;;;;;;12.43;10.70;;;14.00;99.90;;;;;;4985144;28;20117;-81
2023/07/23 03:16:39;;;;;;;12.02;9.48;;;14.00;99.90;;;;;;4992242;28;20033;-83
2023/07/23 03:19:05;;;;;;;14.20;10.35;;;14.00;99.90;;;;;;4997543;28;20026;-83
2023/07/23 03:21:30;;;;;;;13.52;10.38;;;14.00;99.90;;;;;;5011303;28;20397;-82
2023/07/23 03:23:56;;;;;;;12.45;10.60;;;14.00;99.90;;;;;;4984939;28;20030;-82
2023/07/23 03:26:21;;;;;;;11.88;10.43;;;14.00;99.90;;;;;;4994184;28;20473;-83
2023/07/23 03:28:47;;;;;;;12.00;10.13;;;14.00;99.90;;;;;;5004167;28;20041;-82
2023/07/23 03:31:12;;;;;;;12.25;9.90;;;14.00;99.90;;;;;;4985876;28;20038;-83
2023/07/23 03:33:38;;;;;;;12.02;10.02;;;14.00;99.90;;;;;;4992023;28;20026;-82
2023/07/23 03:36:04;;;;;;;14.27;11.32;;;14.00;99.90;;;;;;4984970;28;20112;-83
2023/07/23 03:38:30;;;;;;;11.35;10.18;;;14.00;99.90;;;;;;4992828;28;20105;-81
2023/07/23 03:40:55;;;;;;;12.10;10.18;;;14.00;99.90;;;;;;5003522;28;20489;-83
2023/07/23 03:43:21;;;;;;;12.35;10.35;;;14.10;99.90;;;;;;4992930;28;20029;-83
2023/07/23 03:45:46;;;;;;;13.95;10.65;;;14.10;99.90;;;;;;5003477;28;20073;-81
2023/07/23 03:48:12;;;;;;;12.10;9.75;;;14.10;99.90;;;;;;5003194;28;20109;-82
2023/07/23 03:50:38;;;;;;;14.05;10.68;;;14.10;99.90;;;;;;4985940;28;20030;-82
2023/07/23 03:53:03;;;;;;;13.05;9.10;;;14.10;99.90;;;;;;4998815;28;20018;-83
2023/07/23 03:55:29;;;;;;;11.68;9.63;;;14.10;99.90;;;;;;4992500;28;20535;-81
2023/07/23 03:57:54;;;;;;;13.13;10.27;;;14.10;99.90;;;;;;5003832;28;20122;-82
2023/07/23 04:00:21;;;;;;;13.27;10.13;;;14.10;99.90;;;;;;4992073;28;20091;-82
2023/07/23 04:02:46;;;;;;;12.80;9.88;;;14.10;99.90;;;;;;5002972;28;20034;-81
2023/07/23 04:05:12;;;;;;;13.82;9.32;;;14.10;99.90;;;;;;4984103;28;20025;-80
2023/07/23 04:07:37;;;;;;;11.25;9.35;;;14.10;99.90;;;;;;4990870;28;20072;-81
2023/07/23 04:10:04;;;;;;;15.05;9.95;;;14.10;99.90;;;;;;5001810;28;20140;-82
2023/07/23 04:12:33;;;;;;;12.63;9.95;;;14.10;99.90;;;;;;4987783;28;20053;-83
2023/07/23 04:15:00;;;;;;;11.07;9.98;;;14.10;99.90;;;;;;4986949;28;20072;-82
2023/07/23 04:17:25;;;;;;;10.77;8.70;;;14.10;99.90;;;;;;5001586;28;20022;-81
2023/07/23 04:19:51;;;;;;;11.82;10.05;;;14.10;99.90;;;;;;5004602;28;20130;-81
2023/07/23 04:22:16;;;;;;;13.18;9.95;;;14.10;99.90;;;;;;4984703;28;20062;-82
2023/07/23 04:24:42;;;;;;;14.57;9.90;;;14.20;99.90;;;;;;4984879;28;20049;-82
2023/07/23 04:27:07;;;;;;;11.65;9.85;;;14.20;99.90;;;;;;4987993;28;20030;-81
2023/07/23 04:29:33;;;;;;;16.83;9.95;;;14.20;99.90;;;;;;4987630;28;20526;-81
2023/07/23 04:31:58;;;;;;;10.73;9.15;;;14.20;99.90;;;;;;5002692;28;20523;-81
2023/07/23 04:34:24;;;;;;;10.43;9.32;;;14.20;99.90;;;;;;5001947;28;20031;-81
2023/07/23 04:36:51;;;;;;;11.07;9.88;;;14.20;99.90;;;;;;5005736;28;20033;-79
2023/07/23 04:39:18;;;;;;;11.60;9.30;;;14.20;99.90;;;;;;4986227;28;20117;-81
2023/07/23 04:41:44;;;;;;;13.30;10.15;;;14.20;99.90;;;;;;4986931;28;20037;-80
2023/07/23 04:44:09;;;;;;;10.60;9.38;;;14.20;99.90;;;;;;5006100;28;20037;-80
2023/07/23 04:46:35;;;;;;;12.20;8.93;;;14.20;99.90;;;;;;5004053;28;20018;-80
2023/07/23 04:49:00;;;;;;;12.02;8.93;;;14.20;99.90;;;;;;4987400;28;20026;-80
2023/07/23 04:51:26;;;;;;;11.77;9.73;;;14.20;99.90;;;;;;4985014;28;20044;-81
2023/07/23 04:53:51;;;;;;;11.70;8.70;;;14.20;99.90;;;;;;4986699;28;20022;-81
2023/07/23 04:56:17;;;;;;;9.32;8.43;;;14.20;99.90;;;;;;5004219;28;20034;-81
2023/07/23 04:58:42;;;;;;;12.43;8.40;;;14.30;99.90;;;;;;5003687;28;20098;-80
2023/07/23 05:01:10;;;;;;;9.43;8.43;;;14.20;99.90;;;;;;4987955;28;20582;-80
2023/07/23 05:03:36;;;;;;;11.10;8.68;;;14.20;99.90;;;;;;4984771;28;20034;-79
2023/07/23 05:06:03;;;;;;;9.00;7.78;;;14.20;99.90;;;;;;4986870;28;20440;-81
2023/07/23 05:08:28;;;;;;;9.82;6.80;;;14.20;99.90;;;;;;4977881;28;20033;-81
2023/07/23 05:11:03;;;;;;;9.43;7.80;;;14.30;99.90;;;;;;4980235;28;20022;-80
2023/07/23 05:13:29;;;;;;;10.43;7.68;;;14.30;99.90;;;;;;4997789;28;20093;-79
2023/07/23 05:15:57;;;;;;;8.45;7.53;;;14.30;99.90;;;;;;5001972;28;20022;-80
2023/07/23 05:18:23;;;;;;;9.82;7.15;;;14.30;99.90;;;;;;4986514;28;20120;-81
2023/07/23 05:20:49;;;;;;;8.57;6.72;;;14.30;99.90;;;;;;4984562;28;20068;-80
2023/07/23 05:23:14;;;;;;;9.70;7.38;;;14.30;99.90;;;;;;5001917;28;20030;-79
2023/07/23 05:25:42;;;;;;;12.57;7.00;;;14.30;99.90;;;;;;4983655;28;20068;-81
2023/07/23 05:28:08;;;;;;;7.88;7.07;;;14.30;99.90;;;;;;4985589;28;20061;-80
2023/07/23 05:30:33;;;;;;;9.45;6.80;;;14.40;99.90;;;;;;5001110;28;20481;-80
2023/07/23 05:32:59;;;;;;;10.73;7.38;;;14.40;99.90;;;;;;4984493;28;20651;-80
2023/07/23 05:35:24;;;;;;;8.13;6.60;;;14.30;99.90;;;;;;5000924;28;20112;-80
2023/07/23 05:37:50;;;;;;;7.38;6.60;;;14.30;99.90;;;;;;4982890;28;20024;-80
2023/07/23 05:40:15;;;;;;;6.25;5.60;;;14.30;99.90;;;;;;4985094;28;20034;-80
2023/07/23 05:42:41;;;;;;;8.30;6.60;;;14.30;99.90;;;;;;4984434;28;20026;-81
2023/07/23 05:45:07;;;;;;;7.95;6.82;;;14.30;99.90;;;;;;4984173;28;20037;-80
2023/07/23 05:47:33;;;;;;;9.35;6.63;;;14.30;99.90;;;;;;4983172;28;20056;-80
2023/07/23 05:49:58;;;;;;;8.40;6.20;;;14.40;99.90;;;;;;4983831;28;20496;-80
2023/07/23 05:52:24;;;;;;;12.00;6.22;;;14.30;99.90;;;;;;4999244;28;20029;-81
2023/07/23 05:54:49;;;;;;;5.97;5.15;;;14.30;99.90;;;;;;4985458;28;20397;-80
2023/07/23 05:57:15;;;;;;;6.80;5.78;;;14.40;99.90;;;;;;4985026;28;20031;-81
2023/07/23 05:59:40;;;;;;;7.35;5.88;;;14.40;99.90;;;;;;4985888;28;20022;-82
2023/07/23 06:02:06;;;;;;;7.32;5.43;;;14.40;99.90;;;;;;4980215;28;20492;-81
2023/07/23 06:04:31;;;;;;;6.90;5.78;;;14.30;99.90;;;;;;4986398;28;20069;-81
2023/07/23 06:06:57;;;;;;;7.75;5.32;;;14.30;99.90;;;;;;4986617;28;20025;-81
2023/07/23 06:09:23;;;;;;;11.77;6.07;;;14.30;99.90;;;;;;4981174;28;20037;-81
2023/07/23 06:11:48;;;;;;;6.88;5.07;;;14.40;99.90;;;;;;5005864;28;20026;-79
2023/07/23 06:14:14;;;;;;;7.45;5.22;;;14.40;99.90;;;;;;5004012;28;20026;-81
2023/07/23 06:16:39;;;;;;;6.88;5.47;;;14.40;99.90;;;;;;5016479;28;20026;-81
2023/07/23 06:19:05;;;;;;;6.63;5.03;;;14.40;99.90;;;;;;4987395;28;20073;-82
2023/07/23 06:21:31;;;;;;;7.53;5.50;;;14.50;99.90;;;;;;5010589;28;20711;-82
2023/07/23 06:23:57;;;;;;;7.57;5.88;;;14.60;99.90;;;;;;4984287;28;20047;-81
2023/07/23 06:26:22;;;;;;;6.25;5.18;;;14.50;99.90;;;;;;4986652;28;20022;-82
2023/07/23 06:28:48;;;;;;;7.70;5.35;;;14.60;99.90;;;;;;4984175;28;20037;-82
2023/07/23 06:31:13;;;;;;;6.40;5.68;;;14.60;99.90;;;;;;4985115;28;20039;-81
2023/07/23 06:33:39;;;;;;;7.75;6.00;;;14.60;99.90;;;;;;4991795;28;20036;-81
2023/07/23 06:36:04;;;;;;;6.38;5.10;;;14.70;99.90;;;;;;4984968;28;20117;-82
2023/07/23 06:38:30;;;;;;;7.55;5.63;;;14.60;99.90;;;;;;4984777;28;20034;-81
2023/07/23 06:40:56;;;;;;;5.28;4.78;;;14.70;99.90;;;;;;4984197;28;20023;-81
2023/07/23 06:43:22;;;;;;;9.07;5.20;;;14.70;99.90;;;;;;5010120;28;20032;-81
2023/07/23 06:45:50;;;;;;;7.32;5.55;;;14.70;99.90;;;;;;4997519;28;20030;-81
2023/07/23 06:48:17;;;;;;;6.72;5.70;;;14.80;99.90;;;;;;4984828;28;20027;-82
2023/07/23 06:50:46;;;;;;;8.57;5.47;;;14.80;99.90;;;;;;4993257;28;20499;-81
2023/07/23 06:53:11;;;;;;;7.03;4.80;;;14.80;99.90;;;;;;4987809;28;20109;-82
2023/07/23 06:56:06;;;;;;;6.78;4.55;;;14.90;99.90;;;;;;4993977;28;20453;-81
2023/07/23 06:58:34;;;;;;;6.32;4.88;;;14.90;99.90;;;;;;4988175;28;20046;-81
2023/07/23 07:00:59;;;;;;;8.00;5.20;;;14.90;99.90;;;;;;5010668;28;20140;-82
2023/07/23 07:03:25;;;;;;;6.22;5.63;;;14.90;99.90;;;;;;4987504;28;20034;-82
2023/07/23 07:05:51;;;;;;;7.60;6.32;;;15.00;99.90;;;;;;4989921;28;20384;-82
2023/07/23 07:08:16;;;;;;;6.90;5.15;;;15.00;99.90;;;;;;4989439;28;20030;-83
2023/07/23 07:10:42;;;;;;;7.22;4.80;;;15.00;99.90;;;;;;4990233;28;20015;-82
2023/07/23 07:13:08;;;;;;;8.95;5.43;;;15.00;99.90;;;;;;5008611;28;20144;-81
2023/07/23 07:15:33;;;;;;;8.32;5.20;;;15.00;99.90;;;;;;4987495;28;20061;-81
2023/07/23 07:17:59;;;;;;;8.38;5.72;;;15.00;99.90;;;;;;5006919;28;20091;-82
2023/07/23 07:20:24;;;;;;;8.35;6.13;;;15.00;99.90;;;;;;5005496;28;20028;-82
2023/07/23 07:22:50;;;;;;;6.32;5.57;;;15.00;99.90;;;;;;4987284;28;20077;-83
2023/07/23 07:25:15;;;;;;;6.55;5.95;;;15.10;99.90;;;;;;4989275;28;20042;-82
2023/07/23 07:27:41;;;;;;;7.35;5.63;;;15.10;99.90;;;;;;5005994;28;20446;-82
2023/07/23 07:30:07;;;;;;;6.93;5.88;;;15.10;99.90;;;;;;5004506;28;20034;-82
2023/07/23 07:32:32;;;;;;;7.18;6.43;;;15.20;99.90;;;;;;4988546;28;20094;-84
2023/07/23 07:34:58;;;;;;;6.85;5.85;;;15.20;99.90;;;;;;4989739;28;20052;-82
2023/07/23 07:37:24;;;;;;;8.32;6.22;;;15.20;99.90;;;;;;4987661;28;20173;-81
2023/07/23 07:39:50;;;;;;;9.90;5.80;;;15.20;99.90;;;;;;5007751;28;20666;-82
2023/07/23 07:42:15;;;;;;;6.32;5.65;;;15.30;99.90;;;;;;4984257;28;20085;-82
2023/07/23 07:44:41;;;;;;;9.18;6.65;;;15.40;99.90;;;;;;4988102;28;20524;-82
2023/07/23 07:47:06;;;;;;;9.77;6.97;;;15.40;99.90;;;;;;4991898;28;20037;-83
2023/07/23 07:49:32;;;;;;;7.50;6.15;;;15.40;99.90;;;;;;5005300;28;20034;-82
2023/07/23 07:51:58;;;;;;;9.90;7.15;;;15.50;99.90;;;;;;4992616;28;20034;-82
2023/07/23 07:54:23;;;;;;;8.45;6.53;;;15.50;99.90;;;;;;4987800;28;20088;-83
2023/07/23 07:56:49;;;;;;;7.32;6.63;;;15.50;99.90;;;;;;5007127;28;20029;-81
2023/07/23 07:59:15;;;;;;;10.38;6.53;;;15.60;99.90;;;;;;4989393;28;20085;-81
2023/07/23 08:01:41;;;;;;;10.18;6.55;;;15.60;99.90;;;;;;5004958;28;20030;-82
2023/07/23 08:04:09;;;;;;;6.85;6.15;;;15.60;99.90;;;;;;5004852;28;20037;-81
2023/07/23 08:06:39;;;;;;;8.65;7.10;;;15.60;99.90;;;;;;4986937;28;20023;-82
2023/07/23 08:09:10;;;;;;;8.50;6.55;;;15.60;99.90;;;;;;4989483;28;20030;-81
2023/07/23 08:11:36;;;;;;;8.55;7.13;;;15.70;99.90;;;;;;4988259;28;20511;-82
2023/07/23 08:14:03;;;;;;;8.52;7.10;;;15.70;99.90;;;;;;4984901;28;20060;-82
2023/07/23 08:16:30;;;;;;;7.75;6.63;;;15.70;99.90;;;;;;4993671;28;20030;-82
2023/07/23 08:18:56;;;;;;;9.48;7.18;;;15.70;99.90;;;;;;5004133;28;20031;-83
2023/07/23 08:21:22;;;;;;;9.25;7.15;;;15.80;99.90;;;;;;4993391;28;20032;-83
2023/07/23 08:23:49;;;;;;;9.43;7.43;;;15.80;99.90;;;;;;4985384;28;20037;-81
2023/07/23 08:26:19;;;;;;;9.35;6.80;;;15.80;99.90;;;;;;4993496;28;20406;-82
2023/07/23 08:28:51;;;;;;;9.85;7.07;;;15.80;99.90;;;;;;4984093;28;20496;-82
2023/07/23 08:31:18;;;;;;;10.93;6.80;;;15.80;99.90;;;;;;4985348;28;20054;-83
2023/07/23 08:33:47;;;;;;;10.70;7.95;;;15.90;99.90;;;;;;4992099;28;20031;-82
2023/07/23 08:36:13;;;;;;;8.90;7.15;;;15.90;99.90;;;;;;4985037;28;20033;-81
2023/07/23 08:38:39;;;;;;;9.90;6.80;;;15.90;99.90;;;;;;4992512;28;20026;-82
2023/07/23 08:41:15;;;;;;;7.65;5.93;;;15.90;99.90;;;;;;4985730;28;20076;-82
2023/07/23 08:44:12;;;;;;;7.10;5.68;;;16.00;99.90;;;;;;5010791;28;20024;-83
2023/07/23 08:46:46;;;;;;;6.90;6.20;;;16.00;99.90;;;;;;5004211;28;20478;-82
2023/07/23 08:49:15;;;;;;;6.78;6.03;;;16.10;99.90;;;;;;4988375;28;20400;-82
2023/07/23 08:51:46;;;;;;;11.93;7.32;;;16.10;99.90;;;;;;5005344;28;20037;-83
2023/07/23 08:54:13;;;;;;;9.85;6.78;;;16.20;99.90;;;;;;4978354;28;20042;-81
2023/07/23 08:56:40;;;;;;;6.68;6.00;;;16.20;99.90;;;;;;4987274;28;20041;-82
2023/07/23 08:59:06;;;;;;;8.35;6.78;;;16.20;99.90;;;;;;5007981;28;20493;-82
2023/07/23 09:01:34;;;;;;;7.00;6.13;;;16.20;99.90;;;;;;4987607;28;20034;-82
2023/07/23 09:04:01;;;;;;;8.30;6.80;;;16.20;99.90;;;;;;4984512;28;20067;-81
2023/07/23 09:06:30;;;;;;;10.07;7.47;;;16.20;99.90;;;;;;4986707;28;20022;-82
2023/07/23 09:09:07;;;;;;;7.85;6.57;;;16.30;99.90;;;;;;4986328;28;20627;-82
2023/07/23 09:11:34;;;;;;;7.72;6.55;;;16.30;99.90;;;;;;5007596;28;20018;-82
2023/07/23 09:14:08;;;;;;;6.85;5.70;;;16.30;99.90;;;;;;4995403;28;20065;-83
2023/07/23 09:16:42;;;;;;;9.13;6.18;;;16.30;99.90;;;;;;4994236;28;20137;-82
2023/07/23 09:19:09;;;;;;;7.75;6.40;;;16.40;99.90;;;;;;4986679;28;20042;-82
2023/07/23 09:21:36;;;;;;;9.10;6.47;;;16.40;99.90;;;;;;4991469;28;20425;-81
2023/07/23 09:24:06;;;;;;;8.15;6.53;;;16.40;99.90;;;;;;4986546;28;20057;-82
2023/07/23 09:26:35;;;;;;;10.30;6.03;;;16.40;99.90;;;;;;4994857;28;20018;-82
2023/07/23 09:29:00;;;;;;;6.72;6.05;;;16.40;99.90;;;;;;4984301;28;20022;-83
2023/07/23 09:31:31;;;;;;;8.35;5.93;;;16.50;99.90;;;;;;4986420;28;20042;-82
2023/07/23 09:34:01;;;;;;;8.20;7.22;;;16.50;99.90;;;;;;4990353;28;20557;-82
2023/07/23 09:36:28;;;;;;;7.03;5.82;;;16.60;99.90;;;;;;5004599;28;20798;-82
2023/07/23 09:39:03;;;;;;;8.90;6.60;;;16.60;99.90;;;;;;4989528;28;20030;-81
2023/07/23 09:41:38;;;;;;;8.80;7.13;;;16.60;99.90;;;;;;4982497;28;20030;-81
2023/07/23 09:44:13;;;;;;;6.82;6.13;;;16.70;99.90;;;;;;5007391;28;20023;-82
2023/07/23 09:46:43;;;;;;;9.93;6.95;;;16.80;99.90;;;;;;4986717;28;20050;-82
2023/07/23 09:49:09;;;;;;;11.60;6.65;;;16.80;99.90;;;;;;4986953;28;20088;-80
2023/07/23 09:51:37;;;;;;;8.70;6.47;;;16.80;99.90;;;;;;4999243;28;20022;-82
2023/07/23 09:54:04;;;;;;;12.90;7.13;;;16.80;99.90;;;;;;4987093;28;20168;-81
2023/07/23 09:56:31;;;;;;;7.93;6.53;;;16.80;99.90;;;;;;4985158;28;20069;-81
2023/07/23 09:58:59;;;;;;;8.45;6.13;;;16.90;99.90;;;;;;4987104;28;20014;-82
2023/07/23 10:01:25;;;;;;;7.25;6.28;;;16.90;99.90;;;;;;5003176;28;20501;-80
2023/07/23 10:03:50;;;;;;;10.15;7.13;;;16.90;99.90;;;;;;4986741;28;20040;-82
2023/07/23 10:06:20;;;;;;;9.20;7.03;;;17.00;99.90;;;;;;4979624;28;20057;-80
2023/07/23 10:08:47;;;;;;;7.57;6.65;;;17.00;99.90;;;;;;4986588;28;20022;-82
2023/07/23 10:11:14;;;;;;;7.85;6.93;;;16.90;99.90;;;;;;5003562;28;20041;-81
2023/07/23 10:13:41;;;;;;;8.80;7.47;;;17.00;99.90;;;;;;4999500;28;20030;-81
2023/07/23 10:16:14;;;;;;;8.60;7.25;;;17.00;99.90;;;;;;4985406;28;20026;-81
2023/07/23 10:18:41;;;;;;;11.27;7.50;;;17.10;99.90;;;;;;4977544;28;20037;-81
2023/07/23 10:21:10;;;;;;;8.38;7.00;;;17.20;99.90;;;;;;5002178;28;20101;-81
2023/07/23 10:23:39;;;;;;;8.63;7.70;;;17.30;99.90;;;;;;5000969;28;20032;-82
2023/07/23 10:26:22;;;;;;;10.05;8.20;;;17.30;99.90;;;;;;4990632;28;20029;-81
2023/07/23 10:28:50;;;;;;;8.50;6.85;;;17.40;99.90;;;;;;5001362;28;20030;-81
2023/07/23 10:31:25;;;;;;;8.80;6.78;;;17.50;99.90;;;;;;4985537;28;20497;-82
2023/07/23 10:33:52;;;;;;;8.90;7.50;;;17.60;99.90;;;;;;4979430;28;20026;-80
2023/07/23 10:36:19;;;;;;;8.35;7.50;;;17.70;99.90;;;;;;5002755;28;20049;-81
2023/07/23 10:38:45;;;;;;;9.70;7.80;;;17.70;99.90;;;;;;4991532;28;20034;-80
2023/07/23 10:41:10;;;;;;;9.82;7.75;;;17.80;99.90;;;;;;4984781;28;20026;-80
2023/07/23 10:43:38;;;;;;;9.82;7.70;;;17.90;99.90;;;;;;4992490;28;20045;-80
2023/07/23 10:46:12;;;;;;;11.27;9.02;;;17.90;99.90;;;;;;4983236;28;20026;-81
2023/07/23 10:48:48;;;;;;;8.65;7.38;;;17.90;99.90;;;;;;4997993;28;20022;-82
2023/07/23 10:51:25;;;;;;;8.50;7.60;;;17.90;99.90;;;;;;4991667;28;20088;-81
2023/07/23 10:54:06;;;;;;;9.18;7.75;;;18.00;99.90;;;;;;4977015;28;20042;-82
2023/07/23 10:56:34;;;;;;;9.43;8.25;;;17.90;99.90;;;;;;4990308;28;20015;-82
2023/07/23 10:59:08;;;;;;;7.53;6.72;;;18.00;99.90;;;;;;4986533;28;20104;-82
2023/07/23 11:01:39;;;;;;;9.55;8.05;;;17.90;99.90;;;;;;4989356;28;20026;-82
2023/07/23 11:04:11;;;;;;;9.07;8.07;;;17.90;99.90;;;;;;4993615;28;20042;-81
2023/07/23 11:06:41;;;;;;;8.68;7.00;;;18.00;99.90;;;;;;4989657;28;20426;-82
2023/07/23 11:09:10;;;;;;;11.15;9.02;;;18.00;99.90;;;;;;4991514;28;20084;-81
2023/07/23 11:11:42;;;;;;;10.27;8.02;;;18.00;99.90;;;;;;4989867;28;20650;-81
2023/07/23 11:14:28;;;;;;;9.25;8.05;;;17.90;99.90;;;;;;5004417;28;20026;-81
2023/07/23 11:16:56;;;;;;;8.68;7.75;;;18.00;99.90;;;;;;5000391;28;20794;-81
2023/07/23 11:19:24;;;;;;;11.80;8.45;;;17.90;99.90;;;;;;4987514;28;20509;-81
2023/07/23 11:21:56;;;;;;;9.90;7.43;;;18.00;99.90;;;;;;4991024;28;20029;-82
2023/07/23 11:24:23;;;;;;;11.18;8.00;;;18.00;99.90;;;;;;4987000;28;20014;-82
2023/07/23 11:26:49;;;;;;;9.13;8.13;;;18.00;99.90;;;;;;4998594;28;20044;-81
2023/07/23 11:29:15;;;;;;;13.25;8.07;;;18.00;99.90;;;;;;4989850;28;20037;-82
2023/07/23 11:31:41;;;;;;;7.95;6.68;;;17.90;99.90;;;;;;4990367;28;20548;-82
2023/07/23 11:34:08;;;;;;;9.35;7.40;;;17.90;99.90;;;;;;5006032;28;20054;-81
2023/07/23 11:36:38;;;;;;;9.43;7.65;;;17.90;99.90;;;;;;4989325;28;20406;-82
2023/07/23 11:39:05;;;;;;;8.00;7.20;;;17.90;99.90;;;;;;4992955;28;20030;-81
2023/07/23 11:41:36;;;;;;;8.30;6.70;;;17.90;99.90;;;;;;4989283;28;20038;-82
2023/07/23 11:44:05;;;;;;;9.90;7.93;;;17.80;99.90;;;;;;4994006;28;20018;-82
2023/07/23 11:46:36;;;;;;;8.45;7.47;;;17.80;99.90;;;;;;4989535;28;20101;-82
2023/07/23 11:49:04;;;;;;;8.13;7.10;;;17.70;99.90;;;;;;4992002;28;20113;-82
2023/07/23 11:51:33;;;;;;;9.55;7.57;;;17.70;99.90;;;;;;4990454;28;20523;-82
2023/07/23 11:54:09;;;;;;;7.78;6.97;;;17.60;99.90;;;;;;4990761;28;20030;-82
2023/07/23 11:56:42;;;;;;;;;;;17.60;99.90;;;;;;4990361;28;20528;-82
2023/07/23 11:59:10;;;;;;;9.63;7.97;;;17.50;99.90;;;;;;4990108;28;19910;-82
2023/07/23 12:01:37;;;;;;;10.85;8.00;;;17.50;99.90;;;;;;5007380;28;20493;-82
2023/07/23 12:04:04;;;;;;;9.32;6.45;;;17.50;99.90;;;;;;5001921;28;20041;-84
2023/07/23 12:06:35;;;;;;;10.85;8.38;;;17.50;99.90;;;;;;4986174;28;20104;-82
2023/07/23 12:09:05;;;;;;;8.38;6.38;;;17.50;99.90;;;;;;5013954;28;20037;-82
2023/07/23 12:11:32;;;;;;;8.65;5.32;;;17.50;99.90;;;;;;4995511;28;20489;-82
2023/07/23 12:14:04;;;;;;;5.57;4.90;;;17.40;99.90;;;;;;4988658;28;20022;-83
2023/07/23 12:16:49;;;;;;;6.90;4.93;;;17.40;99.90;;;;;;4994111;28;20448;-82
2023/07/23 12:19:20;;;;;;;5.97;5.33;;;17.50;99.90;;;;;;4988000;28;20125;-82
2023/07/23 12:21:48;;;;;;;4.63;4.05;;;17.50;99.90;;;;;;5010806;28;20261;-82
2023/07/23 12:24:26;;;;;;;5.60;4.80;;;17.60;99.90;;;;;;4987154;28;20033;-82
2023/07/23 12:26:56;;;;;;;5.07;4.57;;;17.60;99.90;;;;;;4976100;28;20019;-82
2023/07/23 12:29:23;;;;;;;5.75;5.15;;;17.70;99.90;;;;;;4988723;28;20026;-82
2023/07/23 12:32:11;;;;;;;5.80;5.18;;;17.70;99.90;;;;;;5007489;28;20101;-81
2023/07/23 12:34:39;;;;;;;7.15;4.93;;;17.60;99.90;;;;;;5003984;28;20369;-83
2023/07/23 12:37:05;;;;;;;5.80;5.20;;;17.60;99.90;;;;;;5005465;28;20101;-83
2023/07/23 12:39:30;;;;;;;5.25;4.63;;;17.60;99.90;;;;;;4987511;28;20026;-82
2023/07/23 12:41:56;;;;;;;6.40;5.80;;;17.60;99.90;;;;;;5007741;28;20786;-82
2023/07/23 12:44:22;;;;;;;6.10;5.13;;;17.60;99.90;;;;;;4989539;28;20025;-83